Time;durP1;ratioP1;P1;durP2;ratioP2;P2;SDS_P1;SDS_P2;PMS_P1;PMS_P2;Temp;Humidity;BMP_temperature;BMP_pressure;BME280_temperature;BME280_humidity;BME280_pressure;Samples;Min_cycle;Max_cycle;Signal;HPM_P1;HPM_P2
2022/06/06 00:02:10;;;;;;;2.67;2.10;;;;;;;17.51;86.74;100352.19;5039704;28;20052;-72
2022/06/06 00:04:37;;;;;;;3.10;2.55;;;;;;;17.58;87.33;100365.97;5048823;28;20550;-73
2022/06/06 00:07:05;;;;;;;3.70;2.40;;;;;;;17.49;87.91;100362.16;5046461;28;20053;-72
2022/06/06 00:09:33;;;;;;;2.80;2.60;;;;;;;17.46;88.58;100362.44;5044610;28;20056;-73
2022/06/06 00:12:02;;;;;;;3.53;2.63;;;;;;;17.40;88.85;100357.53;5049137;28;20370;-73
2022/06/06 00:14:31;;;;;;;4.75;2.70;;;;;;;17.42;89.26;100359.13;5051967;28;20037;-73
2022/06/06 00:16:57;;;;;;;4.53;2.58;;;;;;;17.44;89.31;100342.94;5046615;28;20128;-74
2022/06/06 00:19:24;;;;;;;3.90;2.97;;;;;;;17.41;89.07;100330.66;5051182;28;20416;-72
2022/06/06 00:21:51;;;;;;;9.13;2.63;;;;;;;17.44;89.44;100342.94;5048132;28;20582;-72
2022/06/06 00:24:18;;;;;;;2.75;2.50;;;;;;;17.42;89.66;100337.72;5048793;28;20045;-72
2022/06/06 00:26:47;;;;;;;2.70;2.50;;;;;;;17.44;89.91;100337.59;5052027;28;20139;-72
2022/06/06 00:29:16;;;;;;;6.63;3.10;;;;;;;17.40;89.86;100336.09;5047784;28;20064;-73
2022/06/06 00:37:17;;;;;;;4.78;3.20;;;;;;;17.20;91.66;100334.94;5047182;28;20057;-73
2022/06/06 00:39:45;;;;;;;4.50;3.47;;;;;;;17.13;92.10;100345.25;5049414;28;20049;-72
2022/06/06 00:42:19;;;;;;;5.45;3.38;;;;;;;17.10;92.78;100339.28;5052377;28;20574;-72
2022/06/06 00:44:47;;;;;;;5.13;3.30;;;;;;;17.08;92.63;100334.03;5050879;28;20396;-73
2022/06/06 00:47:26;;;;;;;5.90;3.67;;;;;;;17.08;92.63;100326.00;5047319;28;20059;-73
2022/06/06 00:50:06;;;;;;;6.32;3.88;;;;;;;17.12;92.57;100322.16;5049490;28;20098;-73
2022/06/06 00:52:35;;;;;;;3.83;3.40;;;;;;;17.27;92.45;100327.31;5045121;28;20138;-73
2022/06/06 00:55:08;;;;;;;6.40;3.88;;;;;;;17.28;91.99;100327.19;5056155;28;20052;-74
2022/06/06 00:57:40;;;;;;;3.58;3.25;;;;;;;17.18;91.85;100302.94;5047695;28;20048;-73
2022/06/06 01:00:12;;;;;;;5.00;3.20;;;;;;;17.35;91.78;100335.59;5049764;28;20476;-73
2022/06/06 01:02:42;;;;;;;4.88;3.58;;;;;;;17.30;92.13;100324.41;5046549;28;20474;-72
2022/06/06 01:05:10;;;;;;;5.28;3.58;;;;;;;17.21;92.55;100320.59;5051658;28;20048;-73
2022/06/06 01:07:37;;;;;;;5.18;3.60;;;;;;;17.21;92.89;100320.59;5052805;28;20431;-72
2022/06/06 01:10:04;;;;;;;4.28;3.40;;;;;;;17.25;93.09;100324.75;5058100;28;20052;-72
2022/06/06 01:12:32;;;;;;;5.53;3.58;;;;;;;17.11;92.89;100301.72;5047528;28;20098;-72
2022/06/06 01:15:04;;;;;;;3.92;3.53;;;;;;;17.28;93.06;100321.84;5046786;28;20057;-72
2022/06/06 01:17:52;;;;;;;5.25;3.65;;;;;;;17.28;93.05;100313.81;5044984;28;20068;-72
2022/06/06 01:20:27;;;;;;;5.22;4.10;;;;;;;17.21;92.82;100303.69;5049885;28;20162;-73
2022/06/06 01:23:31;;;;;;;6.57;4.18;;;;;;;17.22;93.08;100321.44;5049226;28;20052;-73
2022/06/06 01:26:15;;;;;;;3.85;3.50;;;;;;;17.18;93.53;100315.47;5036995;28;20072;-73
2022/06/06 01:28:57;;;;;;;4.47;3.85;;;;;;;17.13;93.76;100307.81;5049606;28;20045;-72
2022/06/06 01:31:30;;;;;;;5.07;3.85;;;;;;;17.11;94.03;100301.72;5046359;28;20057;-73
2022/06/06 01:34:04;;;;;;;5.15;3.88;;;;;;;16.98;94.01;100281.34;5059769;28;20045;-73
2022/06/06 01:36:33;;;;;;;4.75;3.88;;;;;;;17.16;94.34;100318.25;5050768;28;20523;-72
2022/06/06 01:39:04;;;;;;;4.57;4.03;;;;;;;17.09;94.16;100316.16;5047198;28;20044;-72
2022/06/06 01:41:44;;;;;;;6.20;4.20;;;;;;;16.94;94.84;100296.78;5045646;28;20051;-73
2022/06/06 01:44:35;;;;;;;4.55;3.85;;;;;;;17.00;95.26;100317.69;5044550;28;20049;-72
2022/06/06 01:47:05;;;;;;;8.25;4.60;;;;;;;17.01;95.29;100316.72;5046945;28;20071;-72
2022/06/06 01:49:34;;;;;;;7.40;4.10;;;;;;;16.99;95.12;100326.72;5049445;28;20040;-74
2022/06/06 01:52:07;;;;;;;6.30;4.32;;;;;;;16.88;95.40;100299.91;5050083;28;20466;-75
2022/06/06 01:54:34;;;;;;;6.78;4.93;;;;;;;16.87;95.65;100311.56;5048508;28;21644;-73
2022/06/06 01:57:08;;;;;;;6.15;5.35;;;;;;;16.77;96.47;100316.75;5045337;28;20091;-73
2022/06/06 01:59:35;;;;;;;6.80;5.07;;;;;;;16.77;97.03;100313.22;5046096;28;20060;-73
2022/06/06 02:02:02;;;;;;;6.13;5.15;;;;;;;16.80;97.00;100302.31;5046578;28;20112;-73
2022/06/06 02:04:28;;;;;;;6.93;5.30;;;;;;;16.82;96.80;100316.41;5049136;28;20539;-73
2022/06/06 02:06:55;;;;;;;5.40;4.90;;;;;;;16.79;96.82;100314.81;5044791;28;20821;-72
2022/06/06 02:09:22;;;;;;;8.38;5.35;;;;;;;16.79;97.24;100321.97;5049480;28;20080;-72
2022/06/06 02:11:50;;;;;;;7.32;5.22;;;;;;;16.76;97.16;100328.41;5049537;28;20098;-73
2022/06/06 02:14:17;;;;;;;6.03;5.32;;;;;;;16.74;97.44;100326.81;5047126;28;20068;-71
2022/06/06 02:16:43;;;;;;;6.38;5.10;;;;;;;16.70;97.34;100326.16;5046673;28;20099;-72
2022/06/06 02:19:11;;;;;;;6.15;5.55;;;;;;;16.65;98.08;100322.16;5047709;28;20256;-72
2022/06/06 02:21:38;;;;;;;5.95;5.15;;;;;;;16.70;98.34;100326.16;5043350;28;20055;-72
2022/06/06 02:24:05;;;;;;;7.25;6.15;;;;;;;16.59;98.08;100306.50;5045865;28;20135;-72
2022/06/06 02:26:32;;;;;;;6.40;5.57;;;;;;;16.64;98.02;100328.47;5045146;28;20052;-72
2022/06/06 02:28:59;;;;;;;8.25;6.00;;;;;;;16.58;98.82;100323.50;5051415;28;20068;-74
2022/06/06 02:31:25;;;;;;;8.32;6.03;;;;;;;16.60;99.17;100334.97;5046643;28;20089;-72
2022/06/06 02:33:52;;;;;;;7.10;6.07;;;;;;;16.62;99.06;100338.38;5022589;28;20532;-72
2022/06/06 02:36:19;;;;;;;6.55;5.93;;;;;;;16.58;99.08;100334.22;5049710;28;20586;-72
2022/06/06 02:38:46;;;;;;;7.28;5.82;;;;;;;16.59;99.09;100330.56;5031029;28;20049;-73
2022/06/06 02:41:12;;;;;;;9.07;6.70;;;;;;;16.57;99.26;100335.16;5045321;28;20436;-72
2022/06/06 02:43:42;;;;;;;9.20;6.70;;;;;;;16.55;99.33;100331.75;5052193;28;20079;-72
2022/06/06 02:46:11;;;;;;;10.23;6.55;;;;;;;16.54;99.52;100330.91;5048605;28;20136;-72
2022/06/06 02:48:38;;;;;;;7.50;6.40;;;;;;;16.55;99.59;100337.09;5049205;28;20397;-72
2022/06/06 02:51:05;;;;;;;8.98;7.00;;;;;;;16.52;99.35;100334.69;5047897;28;20444;-73
2022/06/06 02:53:32;;;;;;;7.88;6.57;;;;;;;16.43;99.62;100320.13;5052296;28;20134;-72
2022/06/06 02:55:59;;;;;;;8.32;6.93;;;;;;;16.53;99.53;100339.06;5043685;28;20142;-73
2022/06/06 02:58:27;;;;;;;7.38;6.47;;;;;;;16.54;99.42;100335.38;5047375;28;20796;-72
2022/06/06 03:01:07;;;;;;;7.05;6.35;;;;;;;16.53;99.09;100339.06;5043669;28;20051;-72
2022/06/06 03:03:35;;;;;;;7.43;6.55;;;;;;;16.56;99.24;100352.19;5041477;28;20667;-72
2022/06/06 03:06:04;;;;;;;7.53;6.82;;;;;;;16.52;99.04;100351.56;5034094;28;21874;-73
2022/06/06 03:08:45;;;;;;;7.22;6.32;;;;;;;16.46;99.44;100346.66;5022933;28;20118;-72
2022/06/06 03:11:18;;;;;;;;;;;;;;;16.45;99.73;100351.13;5025820;28;20121;-72
2022/06/06 03:13:58;;;;;;;7.28;6.22;;;;;;;16.41;99.57;100346.13;5023866;28;19925;-73
2022/06/06 03:23:09;;;;;;;9.02;7.30;;;;;;;16.47;99.46;100348.38;5026316;28;20375;-72
2022/06/06 03:25:42;;;;;;;11.93;7.57;;;;;;;16.50;99.45;100350.81;5023204;28;20045;-74
2022/06/06 03:28:30;;;;;;;8.15;7.22;;;;;;;16.49;98.93;100335.75;5020850;28;20050;-73
2022/06/06 03:31:21;;;;;;;9.40;6.88;;;;;;;16.50;99.08;100342.81;5027643;28;20585;-72
2022/06/06 03:34:14;;;;;;;11.63;7.30;;;;;;;16.48;99.00;100342.91;5022778;28;20049;-72
2022/06/06 03:36:49;;;;;;;10.55;7.60;;;;;;;16.51;98.95;100351.69;5027268;28;20381;-72
2022/06/06 03:39:27;;;;;;;10.48;7.75;;;;;;;16.54;98.57;100362.13;5032944;28;20076;-72
2022/06/06 03:42:15;;;;;;;9.13;7.88;;;;;;;16.54;98.49;100340.72;5026204;28;20496;-72
2022/06/06 03:44:56;;;;;;;9.50;7.45;;;;;;;16.52;98.06;100337.34;5022575;28;20045;-72
2022/06/06 03:47:33;;;;;;;8.40;7.47;;;;;;;16.67;97.72;100363.84;5025623;28;20429;-73
2022/06/06 03:50:18;;;;;;;11.05;7.93;;;;;;;16.71;97.39;100373.34;5029267;28;20057;-72
2022/06/06 03:52:50;;;;;;;10.55;8.10;;;;;;;16.75;97.42;100382.00;5026117;28;20445;-72
2022/06/06 03:55:42;;;;;;;10.75;8.00;;;;;;;16.81;96.56;100384.25;5024059;28;20511;-73
2022/06/06 03:58:13;;;;;;;11.70;8.30;;;;;;;16.76;96.31;100389.06;5031178;28;20080;-74
2022/06/06 04:00:42;;;;;;;10.77;8.75;;;;;;;16.71;97.50;100380.50;5022017;28;20050;-72
2022/06/06 04:03:10;;;;;;;9.82;7.60;;;;;;;16.71;97.28;100381.34;5031218;28;20429;-72
2022/06/06 04:05:39;;;;;;;11.52;8.32;;;;;;;16.72;97.49;100393.75;5026413;28;20065;-72
2022/06/06 04:08:08;;;;;;;10.13;8.20;;;;;;;16.70;97.73;100393.03;5025774;28;20142;-72
2022/06/06 04:10:44;;;;;;;12.03;9.00;;;;;;;16.71;97.46;100391.19;5024492;28;20159;-73
2022/06/06 04:13:20;;;;;;;9.73;8.35;;;;;;;16.80;97.35;100406.59;5031343;28;20460;-73
2022/06/06 04:15:53;;;;;;;10.75;8.90;;;;;;;16.83;97.37;100401.88;5025266;28;20075;-73
2022/06/06 04:18:44;;;;;;;10.23;9.05;;;;;;;16.95;97.40;100402.81;5013411;28;20053;-73
2022/06/06 04:21:43;;;;;;;10.32;8.95;;;;;;;16.98;96.13;100391.88;5019894;28;20104;-75
2022/06/06 04:24:28;;;;;;;10.63;9.02;;;;;;;17.24;94.85;100403.31;5009585;28;20168;-72
2022/06/06 04:26:55;;;;;;;12.57;9.85;;;;;;;17.28;94.48;100404.81;5013208;28;20088;-74
2022/06/06 04:29:24;;;;;;;15.27;9.02;;;;;;;17.36;94.05;100409.56;5028824;28;20061;-74
2022/06/06 04:32:11;;;;;;;10.13;9.05;;;;;;;17.44;93.23;100407.19;5025388;28;20477;-72
2022/06/06 04:35:21;;;;;;;11.60;9.38;;;;;;;17.54;92.32;100413.56;5021116;28;20132;-73
2022/06/06 04:38:08;;;;;;;13.80;8.90;;;;;;;17.58;92.02;100411.50;5028590;28;20092;-73
2022/06/06 04:40:47;;;;;;;13.10;9.00;;;;;;;17.60;91.76;100417.59;5020474;28;20172;-73
2022/06/06 04:43:35;;;;;;;12.80;9.43;;;;;;;17.61;91.65;100411.28;5033478;28;20040;-73
2022/06/06 04:46:33;;;;;;;12.80;9.10;;;;;;;17.56;91.21;100408.09;5021588;28;20109;-73
2022/06/06 04:49:00;;;;;;;11.65;9.27;;;;;;;17.54;91.44;100410.88;5027396;28;20103;-73
2022/06/06 04:51:27;;;;;;;11.85;8.45;;;;;;;17.48;91.57;100392.59;5020521;28;20529;-73
2022/06/06 04:53:56;;;;;;;11.00;8.95;;;;;;;17.65;90.64;100410.94;5027331;28;20050;-72
2022/06/06 04:56:25;;;;;;;11.60;9.48;;;;;;;17.71;91.25;100410.47;5024472;28;20406;-73
2022/06/06 04:58:56;;;;;;;10.38;9.10;;;;;;;17.78;90.76;100411.75;5029097;28;20079;-72
2022/06/06 05:01:24;;;;;;;10.40;8.80;;;;;;;17.88;90.22;100412.72;5027138;28;20041;-73
2022/06/06 05:03:51;;;;;;;11.07;9.10;;;;;;;17.95;89.41;100401.50;5023080;28;20049;-74
2022/06/06 05:06:45;;;;;;;12.05;9.48;;;;;;;18.03;88.43;100385.72;5012875;28;20046;-71
2022/06/06 05:09:24;;;;;;;13.07;8.80;;;;;;;18.29;87.07;100405.09;5012241;28;20676;-75
2022/06/06 05:12:20;;;;;;;11.57;9.52;;;;;;;18.36;86.00;100407.19;5009042;28;20096;-73
2022/06/06 05:14:56;;;;;;;13.23;9.68;;;;;;;18.37;85.72;100402.69;5010323;28;20486;-74
2022/06/06 05:17:36;;;;;;;14.98;10.05;;;;;;;18.39;84.47;100382.81;5010834;28;20061;-74
2022/06/06 05:20:29;;;;;;;13.20;9.45;;;;;;;18.49;84.95;100399.88;5002596;28;20041;-74
2022/06/06 05:23:10;;;;;;;12.48;9.18;;;;;;;18.66;84.23;100405.75;5007245;28;20129;-75
2022/06/06 05:26:00;;;;;;;11.75;9.52;;;;;;;18.67;83.46;100405.63;5004041;28;20116;-74
2022/06/06 05:28:38;;;;;;;14.48;9.60;;;;;;;18.38;83.44;100373.06;5008862;28;20463;-73
2022/06/06 05:31:36;;;;;;;14.30;10.15;;;;;;;18.80;82.99;100413.53;4996367;28;20061;-73
2022/06/06 05:34:09;;;;;;;10.85;8.40;;;;;;;19.12;82.49;100413.59;5003427;28;20050;-74
2022/06/06 05:37:01;;;;;;;10.75;9.35;;;;;;;19.37;80.91;100410.56;5010113;28;20052;-73
2022/06/06 05:39:50;;;;;;;11.20;9.18;;;;;;;19.42;79.21;100416.44;4996113;28;20041;-74
2022/06/06 05:42:29;;;;;;;12.77;9.13;;;;;;;19.42;79.80;100407.50;4998111;28;20577;-73
2022/06/06 05:45:09;;;;;;;11.07;8.45;;;;;;;19.42;79.94;100404.84;5007563;28;20052;-72
2022/06/06 05:47:57;;;;;;;11.50;9.07;;;;;;;19.46;78.63;100407.13;5006047;28;20512;-73
2022/06/06 05:50:45;;;;;;;9.88;8.20;;;;;;;19.63;77.35;100413.81;4999586;28;21765;-74
2022/06/06 05:53:30;;;;;;;11.30;9.10;;;;;;;19.46;77.66;100395.53;5005582;28;20069;-73
2022/06/06 05:56:38;;;;;;;11.50;9.57;;;;;;;19.15;78.32;100414.22;5005339;28;20572;-74
2022/06/06 05:59:30;;;;;;;12.63;9.75;;;;;;;18.81;80.78;100413.41;5004499;28;20509;-73
2022/06/06 06:02:30;;;;;;;14.38;10.15;;;;;;;18.81;82.12;100423.28;4999113;28;20054;-73
2022/06/06 06:05:15;;;;;;;11.88;9.63;;;;;;;18.59;82.10;100408.06;5003695;28;20153;-74
2022/06/06 06:08:21;;;;;;;13.73;9.70;;;;;;;18.81;83.16;100428.66;5018935;28;20145;-74
2022/06/06 06:11:00;;;;;;;12.05;9.35;;;;;;;18.88;81.53;100413.78;5025352;28;20189;-74
2022/06/06 06:13:38;;;;;;;11.00;9.48;;;;;;;19.00;81.07;100428.88;5019196;28;20057;-74
2022/06/06 06:16:07;;;;;;;10.67;9.20;;;;;;;19.17;79.96;100444.47;5025484;28;20128;-74
2022/06/06 06:18:40;;;;;;;12.35;9.23;;;;;;;19.06;80.20;100433.72;5021992;28;20086;-75
2022/06/06 06:21:19;;;;;;;10.77;8.32;;;;;;;19.07;80.77;100435.44;5018575;28;20477;-72
2022/06/06 06:24:03;;;;;;;9.90;8.15;;;;;;;19.28;79.51;100431.00;5027450;28;20096;-72
2022/06/06 06:26:31;;;;;;;11.05;8.50;;;;;;;19.68;77.25;100421.47;5020636;28;20057;-73
2022/06/06 06:29:06;;;;;;;11.65;8.00;;;;;;;20.11;75.34;100443.72;5016691;28;20046;-73
2022/06/06 06:31:53;;;;;;;9.30;8.30;;;;;;;20.43;74.01;100445.50;5022145;28;20107;-73
2022/06/06 06:34:54;;;;;;;10.85;8.02;;;;;;;20.48;71.21;100437.84;5021136;28;20053;-73
2022/06/06 06:37:22;;;;;;;12.65;8.52;;;;;;;20.14;73.24;100442.63;5020634;28;20111;-74
2022/06/06 06:40:21;;;;;;;10.35;8.25;;;;;;;19.64;75.06;100458.50;5002332;28;20665;-74
2022/06/06 06:43:12;;;;;;;10.95;7.88;;;;;;;19.35;76.19;100460.91;5024407;28;20057;-73
2022/06/06 06:45:50;;;;;;;12.93;8.32;;;;;;;19.31;75.80;100442.47;5021661;28;20051;-73
2022/06/06 06:48:37;;;;;;;11.13;7.85;;;;;;;19.43;75.84;100463.78;5016334;28;20120;-73
2022/06/06 06:51:06;;;;;;;9.43;7.72;;;;;;;19.01;75.70;100408.25;5027367;28;20069;-73
2022/06/06 06:53:42;;;;;;;9.20;7.30;;;;;;;19.46;75.72;100468.06;5021968;28;20469;-73
2022/06/06 06:56:31;;;;;;;9.70;7.18;;;;;;;19.34;74.83;100464.56;5022604;28;20406;-73
2022/06/06 06:59:39;;;;;;;8.25;7.00;;;;;;;19.33;75.54;100467.38;5028652;28;20045;-72
2022/06/06 07:09:19;;;;;;;8.38;7.00;;;;;;;19.38;73.30;100465.13;5020431;28;20126;-72
2022/06/06 07:11:51;;;;;;;8.40;6.80;;;;;;;19.37;73.94;100464.28;5018142;28;20075;-73
2022/06/06 07:14:21;;;;;;;12.10;6.97;;;;;;;19.48;73.19;100468.78;5023530;28;20099;-74
2022/06/06 07:16:53;;;;;;;9.33;7.73;;;;;;;19.36;74.21;100467.13;5004803;28;20552;-74
2022/06/06 07:19:24;;;;;;;7.30;6.32;;;;;;;19.43;72.30;100468.31;5012527;28;20899;-73
2022/06/06 07:21:52;;;;;;;10.10;6.60;;;;;;;19.44;72.55;100453.91;5012599;28;20729;-73
2022/06/06 07:24:23;;;;;;;8.65;6.18;;;;;;;19.27;72.43;100448.09;5017568;28;20042;-73
2022/06/06 07:26:51;;;;;;;8.85;6.00;;;;;;;19.32;71.97;100474.56;5024016;28;20057;-74
2022/06/06 07:29:20;;;;;;;9.68;7.05;;;;;;;19.36;72.28;100467.94;4999187;28;20069;-73
2022/06/06 07:32:05;;;;;;;8.20;6.25;;;;;;;19.50;71.72;100450.75;5021008;28;20750;-74
2022/06/06 07:34:41;;;;;;;7.97;6.07;;;;;;;19.84;70.71;100462.19;5023620;28;20099;-74
2022/06/06 07:37:27;;;;;;;7.82;6.40;;;;;;;19.91;69.76;100452.63;5011725;28;20439;-74
2022/06/06 07:40:03;;;;;;;9.32;6.47;;;;;;;20.07;69.98;100458.41;5019134;28;20064;-74
2022/06/06 07:42:56;;;;;;;7.43;6.28;;;;;;;20.03;69.32;100459.66;5020325;28;20064;-74
2022/06/06 07:45:51;;;;;;;6.75;5.88;;;;;;;20.14;69.79;100456.91;5020308;28;20045;-75
2022/06/06 07:48:49;;;;;;;7.22;5.63;;;;;;;20.54;67.35;100448.09;5022309;28;20069;-73
2022/06/06 07:51:28;;;;;;;10.10;6.65;;;;;;;20.66;66.80;100410.19;5018576;28;20050;-74
2022/06/06 07:54:37;;;;;;;6.90;6.20;;;;;;;20.87;65.64;100430.81;5016260;28;20053;-73
2022/06/06 07:57:17;;;;;;;9.38;6.88;;;;;;;20.47;66.78;100444.22;5021287;28;20478;-73
2022/06/06 07:59:54;;;;;;;7.85;6.18;;;;;;;20.53;66.74;100441.84;5018515;28;20112;-74
2022/06/06 08:02:49;;;;;;;7.43;6.00;;;;;;;20.25;65.22;100439.84;5026047;28;20110;-74
2022/06/06 08:05:37;;;;;;;7.25;5.40;;;;;;;20.39;66.55;100427.91;5024291;28;20049;-73
2022/06/06 08:08:16;;;;;;;7.22;5.47;;;;;;;21.17;63.69;100425.34;5023762;28;20042;-72
2022/06/06 08:10:44;;;;;;;8.40;5.55;;;;;;;21.87;61.72;100418.03;5024716;28;20060;-73
2022/06/06 08:13:29;;;;;;;6.07;5.40;;;;;;;22.12;60.91;100428.25;5024030;28;20038;-73
2022/06/06 08:16:20;;;;;;;7.18;4.78;;;;;;;21.75;60.51;100422.72;5013482;28;20920;-74
2022/06/06 08:19:15;;;;;;;6.70;5.22;;;;;;;21.24;62.89;100409.53;5030477;28;20053;-73
2022/06/06 08:21:47;;;;;;;8.77;5.47;;;;;;;21.37;62.20;100433.50;5029411;28;20532;-72
2022/06/06 08:24:36;;;;;;;8.02;5.53;;;;;;;20.86;63.68;100439.88;5015139;28;20056;-72
2022/06/06 08:27:20;;;;;;;5.80;4.88;;;;;;;20.47;64.73;100445.06;5016201;28;20045;-74
2022/06/06 08:29:48;;;;;;;5.80;4.63;;;;;;;20.41;64.94;100442.94;5018946;28;20148;-76
2022/06/06 08:32:16;;;;;;;7.60;5.47;;;;;;;20.24;66.51;100451.59;5016781;28;20422;-80
2022/06/06 08:34:43;;;;;;;5.68;4.97;;;;;;;20.18;66.73;100447.56;5019891;28;20149;-79
2022/06/06 08:37:42;;;;;;;6.95;5.63;;;;;;;19.88;69.00;100444.81;5021496;28;20073;-79
2022/06/06 08:40:25;;;;;;;6.85;5.75;;;;;;;20.02;70.57;100463.31;5015201;28;20123;-73
2022/06/06 08:43:29;;;;;;;7.78;5.78;;;;;;;20.07;71.26;100452.19;5021093;28;20052;-72
2022/06/06 08:46:19;;;;;;;6.05;5.32;;;;;;;20.06;71.77;100445.94;5026123;28;20080;-74
2022/06/06 08:48:52;;;;;;;;;;;;;;;19.91;71.23;100442.72;5023401;28;20053;-75
2022/06/06 08:51:52;;;;;;;7.70;5.45;;;;;;;19.85;73.17;100451.31;5017728;28;20448;-76
2022/06/06 08:54:37;;;;;;;8.88;6.18;;;;;;;20.05;74.21;100428.13;5017396;28;20528;-72
2022/06/06 08:57:37;;;;;;;6.72;5.90;;;;;;;20.56;69.23;100446.13;5022970;28;20045;-75
2022/06/06 09:00:32;;;;;;;7.50;5.63;;;;;;;20.65;69.26;100439.91;5019000;28;20045;-74
2022/06/06 09:03:01;;;;;;;6.93;6.22;;;;;;;20.58;70.63;100436.09;5010193;28;20051;-73
2022/06/06 09:05:28;;;;;;;6.93;5.77;;;;;;;20.43;69.32;100438.28;5019477;28;20505;-72
2022/06/06 09:08:03;;;;;;;8.85;4.63;;;;;;;20.39;66.71;100442.22;5020112;28;20073;-72
2022/06/06 09:10:44;;;;;;;4.95;4.30;;;;;;;20.61;64.41;100435.81;5020221;28;20072;-71
2022/06/06 09:13:40;;;;;;;4.10;3.70;;;;;;;20.40;63.80;100425.09;5017215;28;20052;-71
2022/06/06 09:16:29;;;;;;;5.55;4.28;;;;;;;19.99;64.98;100404.44;5023615;28;20077;-70
2022/06/06 09:19:26;;;;;;;7.40;4.47;;;;;;;19.91;65.31;100423.94;5025494;28;20072;-70
2022/06/06 09:22:32;;;;;;;4.72;3.88;;;;;;;19.99;66.06;100414.38;5024932;28;20073;-72
2022/06/06 09:25:28;;;;;;;4.80;3.72;;;;;;;20.26;65.02;100428.97;5026012;28;20089;-71
2022/06/06 09:28:31;;;;;;;4.35;3.83;;;;;;;20.53;65.17;100411.41;5026749;28;20088;-72
2022/06/06 09:31:13;;;;;;;5.90;3.05;;;;;;;20.85;61.11;100427.41;5022361;28;20049;-72
2022/06/06 09:34:14;;;;;;;3.88;3.08;;;;;;;20.75;61.42;100421.16;5027682;28;20057;-73
2022/06/06 09:36:58;;;;;;;3.90;2.70;;;;;;;20.76;61.36;100423.69;5023411;28;20064;-71
2022/06/06 09:39:52;;;;;;;3.58;3.28;;;;;;;20.57;62.03;100424.47;5026438;28;20080;-72
2022/06/06 09:42:37;;;;;;;5.05;3.15;;;;;;;20.57;62.19;100431.69;5023029;28;20514;-72
2022/06/06 09:45:27;;;;;;;6.35;3.78;;;;;;;20.76;62.10;100431.78;5024766;28;20080;-70
2022/06/06 09:48:13;;;;;;;3.67;3.20;;;;;;;20.66;61.51;100426.34;5020493;28;20052;-78
2022/06/06 09:50:59;;;;;;;5.65;3.60;;;;;;;20.93;61.01;100436.50;5024256;28;20140;-74
2022/06/06 10:00:01;;;;;;;4.28;2.80;;;;;;;21.14;60.11;100444.47;5025668;28;20084;-74
2022/06/06 10:02:57;;;;;;;3.47;3.08;;;;;;;20.99;58.74;100411.72;5017293;28;20037;-71
2022/06/06 10:06:21;;;;;;;3.17;2.65;;;;;;;21.31;58.12;100434.91;5038233;28;20053;-71
2022/06/06 10:09:13;;;;;;;2.47;2.25;;;;;;;21.27;57.35;100433.47;4952071;28;20147;-71
2022/06/06 10:12:02;;;;;;;5.10;3.00;;;;;;;21.34;57.95;100430.09;4961982;28;20052;-73
2022/06/06 10:14:53;;;;;;;4.30;2.75;;;;;;;21.57;56.54;100437.88;5014573;28;20430;-73
2022/06/06 10:17:57;;;;;;;4.03;3.15;;;;;;;21.62;55.94;100428.41;5021055;28;20045;-71
2022/06/06 10:20:42;;;;;;;4.15;2.95;;;;;;;21.62;55.67;100428.41;5022998;28;20052;-69
2022/06/06 10:23:48;;;;;;;3.15;2.60;;;;;;;21.46;55.10;100419.19;5028009;28;20054;-71
2022/06/06 10:26:49;;;;;;;2.97;2.50;;;;;;;21.41;53.08;100414.19;5023699;28;20045;-70
2022/06/06 10:32:45;;;;;;;3.90;2.45;;;;;;;21.47;51.60;100396.63;5021492;28;20060;-69
2022/06/06 10:35:36;;;;;;;2.88;2.40;;;;;;;21.79;50.25;100397.19;5023409;28;20057;-70
2022/06/06 10:38:28;;;;;;;2.20;1.92;;;;;;;21.92;49.51;100376.16;5022851;28;20057;-70
2022/06/06 10:41:15;;;;;;;3.55;1.98;;;;;;;22.02;49.73;100401.31;5023987;28;20072;-70
2022/06/06 10:43:48;;;;;;;2.00;1.80;;;;;;;22.33;48.46;100407.31;5023397;28;20623;-69
2022/06/06 10:46:29;;;;;;;2.78;1.75;;;;;;;22.34;46.10;100403.63;5019664;28;20046;-68
2022/06/06 10:49:31;;;;;;;4.55;1.77;;;;;;;22.14;46.42;100403.81;5017085;28;20057;-68
2022/06/06 10:52:36;;;;;;;2.00;1.80;;;;;;;22.25;46.97;100387.47;5026387;28;20071;-68
2022/06/06 10:55:38;;;;;;;4.03;1.90;;;;;;;22.68;46.68;100368.81;5017681;28;20484;-71
2022/06/06 10:58:23;;;;;;;1.70;1.45;;;;;;;22.90;44.40;100391.03;5026279;28;20118;-72
2022/06/06 11:01:19;;;;;;;2.53;1.65;;;;;;;23.01;44.07;100396.22;5019157;28;20127;-72
2022/06/06 11:04:21;;;;;;;2.75;1.80;;;;;;;23.05;44.87;100381.41;5022514;28;20280;-71
2022/06/06 11:07:02;;;;;;;3.28;2.00;;;;;;;23.54;43.73;100388.19;4996419;28;20074;-71
2022/06/06 11:09:35;;;;;;;3.58;2.08;;;;;;;23.62;43.67;100390.09;4993363;28;20141;-70
2022/06/06 11:12:49;;;;;;;2.10;1.90;;;;;;;23.96;44.14;100387.50;4995795;28;20677;-70
2022/06/06 11:15:15;;;;;;;2.00;1.80;;;;;;;23.80;43.51;100377.41;4994687;28;20041;-70
2022/06/06 11:33:29;;;;;;;2.15;1.95;;;;;;;23.86;44.46;100360.56;4994225;28;20130;-73
2022/06/06 11:36:33;;;;;;;1.83;1.58;;;;;;;24.02;44.08;100363.38;4999095;28;20146;-71
2022/06/06 11:39:37;;;;;;;2.42;1.70;;;;;;;23.49;44.44;100355.31;4995299;28;20474;-71
2022/06/06 11:42:22;;;;;;;2.88;1.80;;;;;;;23.50;44.76;100345.38;4993570;28;20517;-71
2022/06/06 11:45:10;;;;;;;2.00;1.60;;;;;;;23.76;44.32;100347.16;4999111;28;20237;-70
2022/06/06 11:47:52;;;;;;;3.70;2.10;;;;;;;23.60;45.21;100344.31;4998815;28;20121;-71
2022/06/06 11:50:21;;;;;;;2.83;1.83;;;;;;;23.79;45.12;100337.84;5001805;28;20054;-71
2022/06/06 11:53:12;;;;;;;1.80;1.70;;;;;;;24.41;44.52;100335.88;5004650;28;20058;-70
2022/06/06 11:55:58;;;;;;;2.75;1.73;;;;;;;24.72;44.09;100337.00;5002813;28;20077;-70
2022/06/06 11:58:44;;;;;;;3.65;1.83;;;;;;;24.88;43.66;100333.50;5006301;28;20124;-72
2022/06/06 12:01:29;;;;;;;1.67;1.58;;;;;;;25.04;42.74;100325.44;5001507;28;20046;-71
2022/06/06 12:04:44;;;;;;;3.08;1.80;;;;;;;24.95;43.29;100326.44;5001426;28;20050;-69
2022/06/06 12:07:37;;;;;;;2.10;1.70;;;;;;;25.06;42.92;100325.28;5016147;28;20216;-69
2022/06/06 12:10:04;;;;;;;3.08;1.60;;;;;;;24.51;43.47;100320.38;5018503;28;20048;-71
2022/06/06 12:12:41;;;;;;;3.70;1.80;;;;;;;24.43;43.96;100312.19;5018915;28;20052;-69
2022/06/06 12:15:17;;;;;;;2.38;1.60;;;;;;;24.15;43.38;100300.72;5026122;28;20049;-72
2022/06/06 12:18:01;;;;;;;3.13;1.60;;;;;;;24.29;44.52;100308.25;5028176;28;20130;-70
2022/06/06 12:20:49;;;;;;;1.30;1.20;;;;;;;24.35;42.85;100307.63;5025183;28;20128;-70
2022/06/06 12:23:50;;;;;;;2.28;1.38;;;;;;;24.61;41.59;100304.81;5028467;28;20128;-71
2022/06/06 12:26:45;;;;;;;6.60;1.63;;;;;;;24.71;41.81;100296.59;5011474;28;20051;-69
2022/06/06 12:29:37;;;;;;;1.40;1.30;;;;;;;24.09;42.57;100302.19;5015095;28;20081;-69
2022/06/06 12:32:38;;;;;;;2.17;1.80;;;;;;;23.71;42.49;100292.69;5008315;28;20077;-70
2022/06/06 12:35:19;;;;;;;2.15;1.33;;;;;;;23.45;43.29;100289.91;5018060;28;20046;-70
2022/06/06 12:37:48;;;;;;;;;;;;;;;23.50;42.77;100291.31;5028932;28;20061;-71
2022/06/06 12:40:15;;;;;;;2.78;1.40;;;;;;;23.64;43.16;100296.19;5022182;28;19929;-69
2022/06/06 12:43:22;;;;;;;3.08;1.40;;;;;;;24.12;42.49;100290.22;5019210;28;20180;-71
2022/06/06 12:46:07;;;;;;;2.05;1.50;;;;;;;24.47;41.92;100279.25;5017313;28;20155;-69
2022/06/06 12:48:49;;;;;;;3.30;1.33;;;;;;;24.89;40.71;100297.28;5021682;28;20049;-72
2022/06/06 12:51:38;;;;;;;1.80;1.42;;;;;;;25.04;39.86;100287.50;5022219;28;20048;-69
2022/06/06 12:54:17;;;;;;;3.63;1.45;;;;;;;25.06;40.18;100290.91;5016097;28;20104;-69
2022/06/06 12:56:57;;;;;;;3.72;1.50;;;;;;;25.09;40.18;100287.00;5021081;28;20133;-70
2022/06/06 12:59:46;;;;;;;2.33;1.60;;;;;;;25.09;40.34;100282.44;5022171;28;20084;-70
2022/06/06 13:02:58;;;;;;;5.70;1.60;;;;;;;24.91;40.21;100278.16;5021089;28;20341;-69
2022/06/06 13:05:43;;;;;;;2.58;1.92;;;;;;;25.06;42.08;100273.78;5014311;28;20159;-70
2022/06/06 13:08:28;;;;;;;4.70;2.03;;;;;;;25.18;40.61;100253.50;5019176;28;20183;-71
2022/06/06 13:11:17;;;;;;;2.95;1.48;;;;;;;25.62;40.18;100272.13;5023596;28;20454;-71
2022/06/06 13:14:20;;;;;;;1.70;1.60;;;;;;;25.92;39.71;100252.41;5020608;28;20081;-69